createdAt,value
2022-08-05T00:01:35.532Z,22.28
2022-08-05T00:04:05.225Z,22.20
2022-08-05T00:06:36.246Z,22.26
2022-08-05T00:09:04.633Z,22.01
2022-08-05T00:11:49.068Z,21.93
2022-08-05T00:14:17.526Z,21.96
2022-08-05T00:16:53.306Z,21.96
2022-08-05T00:19:22.589Z,21.99
2022-08-05T00:21:51.125Z,22.03
2022-08-05T00:24:24.389Z,21.83
2022-08-05T00:26:54.100Z,21.83
2022-08-05T00:29:25.299Z,22.05
2022-08-05T00:32:13.363Z,22.12
2022-08-05T00:34:54.550Z,22.07
2022-08-05T00:37:50.794Z,21.92
2022-08-05T00:40:17.896Z,21.74
2022-08-05T00:43:00.177Z,21.53
2022-08-05T00:45:42.877Z,21.48
2022-08-05T00:48:12.925Z,21.41
2022-08-05T00:50:41.364Z,21.57
2022-08-05T00:54:00.085Z,21.74
2022-08-05T00:56:01.847Z,21.62
2022-08-05T00:58:30.665Z,21.39
2022-08-05T01:00:58.249Z,21.01
2022-08-05T01:03:30.943Z,20.80
2022-08-05T01:06:01.388Z,20.82
2022-08-05T01:08:43.446Z,20.69
2022-08-05T01:11:22.646Z,20.51
2022-08-05T01:14:03.508Z,20.25
2022-08-05T01:16:36.845Z,20.15
2022-08-05T01:19:14.843Z,20.11
2022-08-05T01:21:58.183Z,19.90
2022-08-05T01:24:41.452Z,19.91
2022-08-05T01:27:27.088Z,19.95
2022-08-05T01:30:03.965Z,19.96
2022-08-05T01:32:33.387Z,19.93
2022-08-05T01:35:04.200Z,19.83
2022-08-05T01:37:44.298Z,19.88
2022-08-05T01:40:13.697Z,19.89
2022-08-05T01:42:46.341Z,19.71
2022-08-05T01:45:16.615Z,19.65
2022-08-05T01:47:45.625Z,19.54
2022-08-05T01:50:18.925Z,19.47
2022-08-05T01:52:58.971Z,19.45
2022-08-05T01:55:27.950Z,19.39
2022-08-05T01:58:14.773Z,19.24
2022-08-05T02:00:46.997Z,19.03
2022-08-05T02:03:31.276Z,18.92
2022-08-05T02:06:03.613Z,19.10
2022-08-05T02:08:58.254Z,19.16
2022-08-05T02:11:33.644Z,19.21
2022-08-05T02:14:04.132Z,19.35
2022-08-05T02:16:36.122Z,19.35
2022-08-05T02:19:13.015Z,19.38
2022-08-05T02:21:49.064Z,19.33
2022-08-05T02:24:23.114Z,19.35
2022-08-05T02:26:54.811Z,19.43
2022-08-05T02:29:58.178Z,19.49
2022-08-05T02:32:23.639Z,19.55
2022-08-05T02:34:57.978Z,19.56
2022-08-05T02:37:29.568Z,19.31
2022-08-05T02:39:59.884Z,19.19
2022-08-05T02:42:31.915Z,19.34
2022-08-05T02:45:02.738Z,19.47
2022-08-05T02:48:07.282Z,19.59
2022-08-05T02:50:19.958Z,19.59
2022-08-05T02:52:47.796Z,19.47
2022-08-05T02:55:17.571Z,19.42
2022-08-05T02:58:11.318Z,19.51
2022-08-05T03:00:41.224Z,19.53
2022-08-05T03:03:16.345Z,19.53
2022-08-05T03:06:53.645Z,19.51
2022-08-05T03:08:32.225Z,19.47
2022-08-05T03:11:01.302Z,19.40
2022-08-05T03:13:51.768Z,19.35
2022-08-05T03:16:31.662Z,19.35
2022-08-05T03:19:00.788Z,19.48
2022-08-05T03:21:33.196Z,19.52
2022-08-05T03:24:10.514Z,19.51
2022-08-05T03:26:41.179Z,19.36
2022-08-05T03:29:13.351Z,19.38
2022-08-05T03:31:55.644Z,19.43
2022-08-05T03:34:26.407Z,19.48
2022-08-05T03:36:54.932Z,19.33
2022-08-05T03:39:27.162Z,19.22
2022-08-05T03:41:56.389Z,19.23
2022-08-05T03:44:24.122Z,19.25
2022-08-05T03:46:51.605Z,19.20
2022-08-05T03:49:19.446Z,19.25
2022-08-05T03:52:48.602Z,19.21
2022-08-05T03:56:00.973Z,19.04
2022-08-05T03:57:42.246Z,19.11
2022-08-05T04:00:12.693Z,19.01
2022-08-05T04:02:57.545Z,18.97
2022-08-05T04:05:28.233Z,18.95
2022-08-05T04:08:03.589Z,19.00
2022-08-05T04:10:37.971Z,19.06
2022-08-05T04:13:07.040Z,19.00
2022-08-05T04:15:36.135Z,19.06
2022-08-05T04:18:07.006Z,18.96
2022-08-05T04:20:36.715Z,19.05
2022-08-05T04:23:05.532Z,19.12
2022-08-05T04:25:57.076Z,19.15
2022-08-05T04:28:21.137Z,19.21
2022-08-05T04:31:00.780Z,19.06
2022-08-05T04:33:36.398Z,19.07
2022-08-05T04:36:46.143Z,19.21
2022-08-05T04:39:05.662Z,19.30
2022-08-05T04:41:37.636Z,19.28
2022-08-05T04:44:09.586Z,19.36
2022-08-05T04:46:37.878Z,19.43
2022-08-05T04:49:05.813Z,19.43
2022-08-05T04:51:39.933Z,19.19
2022-08-05T04:54:11.983Z,19.09
2022-08-05T04:56:40.128Z,18.82
2022-08-05T04:59:22.023Z,18.90
2022-08-05T05:02:36.135Z,18.93
2022-08-05T05:04:47.619Z,18.89
2022-08-05T05:07:17.567Z,18.96
2022-08-05T05:09:46.634Z,18.98
2022-08-05T05:12:14.853Z,19.04
2022-08-05T05:14:49.269Z,19.16
2022-08-05T05:17:23.469Z,19.06
2022-08-05T05:19:54.349Z,19.22
2022-08-05T05:22:24.532Z,19.30
2022-08-05T05:24:58.550Z,19.29
2022-08-05T05:27:44.635Z,19.32
2022-08-05T05:30:15.301Z,19.27
2022-08-05T05:33:00.998Z,19.36
2022-08-05T05:35:37.582Z,19.34
2022-08-05T05:38:13.505Z,19.17
2022-08-05T05:40:48.122Z,19.01
2022-08-05T05:43:27.723Z,19.02
2022-08-05T05:46:13.671Z,19.02
2022-08-05T05:48:46.062Z,18.87
2022-08-05T05:51:22.395Z,18.79
2022-08-05T05:53:57.709Z,18.83
2022-08-05T05:56:31.861Z,18.65
2022-08-05T05:59:03.614Z,18.65
2022-08-05T06:01:37.078Z,18.88
2022-08-05T06:04:07.273Z,19.10
2022-08-05T06:06:35.553Z,19.17
2022-08-05T06:09:03.981Z,19.38
2022-08-05T06:11:33.270Z,19.36
2022-08-05T06:14:01.667Z,19.37
2022-08-05T06:16:36.672Z,19.16
2022-08-05T06:19:07.407Z,18.90
2022-08-05T06:21:38.325Z,18.75
2022-08-05T06:24:11.989Z,18.70
2022-08-05T06:26:51.250Z,18.66
2022-08-05T06:29:23.610Z,18.72
2022-08-05T06:31:54.361Z,18.78
2022-08-05T06:34:21.869Z,18.77
2022-08-05T06:36:57.381Z,18.76
2022-08-05T06:39:27.028Z,18.56
2022-08-05T06:41:58.729Z,18.56
2022-08-05T06:44:26.755Z,18.61
2022-08-05T06:46:54.521Z,18.66
2022-08-05T06:50:00.058Z,18.63
2022-08-05T06:52:36.618Z,18.52
2022-08-05T06:54:57.174Z,18.50
2022-08-05T06:57:57.677Z,18.66
2022-08-05T07:00:14.188Z,18.79
2022-08-05T07:02:53.607Z,18.70
2022-08-05T07:05:31.791Z,18.95
2022-08-05T07:08:10.930Z,19.00
2022-08-05T07:10:39.388Z,19.17
2022-08-05T07:13:58.698Z,19.33
2022-08-05T07:18:01.907Z,19.40
2022-08-05T07:20:29.834Z,18.94
2022-08-05T07:22:22.346Z,18.65
2022-08-05T07:24:56.977Z,18.88
2022-08-05T07:27:27.354Z,18.78
2022-08-05T07:30:25.408Z,18.71
2022-08-05T07:32:45.990Z,18.59
2022-08-05T07:36:01.554Z,18.84
2022-08-05T07:38:12.169Z,18.89
2022-08-05T07:40:44.387Z,18.88
2022-08-05T07:43:14.567Z,18.92
2022-08-05T07:45:57.565Z,18.98
2022-08-05T07:49:00.419Z,19.00
2022-08-05T07:51:23.681Z,19.02
2022-08-05T07:54:03.223Z,18.80
2022-08-05T07:56:49.018Z,18.73
2022-08-05T07:59:23.194Z,18.74
2022-08-05T08:02:00.249Z,18.64
2022-08-05T08:04:37.889Z,18.60
2022-08-05T08:07:07.468Z,18.50
2022-08-05T08:09:35.219Z,18.41
2022-08-05T08:12:12.531Z,18.45
2022-08-05T08:14:46.624Z,18.67
2022-08-05T08:17:16.405Z,18.83
2022-08-05T08:20:43.690Z,19.04
2022-08-05T08:22:32.867Z,19.12
2022-08-05T08:25:03.073Z,19.10
2022-08-05T08:27:39.874Z,19.06
2022-08-05T08:30:29.522Z,19.05
2022-08-05T08:33:04.501Z,19.27
2022-08-05T08:35:41.086Z,19.16
2022-08-05T08:38:16.451Z,19.06
2022-08-05T08:40:50.483Z,19.05
2022-08-05T08:45:18.291Z,19.08
2022-08-05T08:46:10.022Z,18.90
2022-08-05T08:49:04.160Z,18.97
2022-08-05T08:52:03.553Z,18.82
2022-08-05T08:54:22.238Z,18.78
2022-08-05T08:56:56.630Z,18.80
2022-08-05T08:59:27.761Z,18.99
2022-08-05T09:02:01.846Z,18.99
2022-08-05T09:04:31.155Z,18.97
2022-08-05T09:06:58.946Z,18.57
2022-08-05T09:09:34.712Z,18.31
2022-08-05T09:12:20.022Z,18.32
2022-08-05T09:14:57.115Z,18.33
2022-08-05T09:17:40.851Z,18.37
2022-08-05T09:20:36.299Z,18.58
2022-08-05T09:23:09.378Z,18.53
2022-08-05T09:26:02.468Z,18.53
2022-08-05T09:28:32.350Z,18.12
2022-08-05T09:32:38.702Z,17.69
2022-08-05T09:33:52.406Z,17.63
2022-08-05T09:36:27.789Z,17.74
2022-08-05T09:39:01.178Z,17.62
2022-08-05T09:41:33.187Z,17.66
2022-08-05T09:44:05.755Z,17.55
2022-08-05T09:46:34.972Z,17.67
2022-08-05T09:49:08.094Z,17.94
2022-08-05T09:51:50.051Z,18.01
2022-08-05T09:54:21.263Z,17.99
2022-08-05T09:56:57.595Z,18.05
2022-08-05T09:59:27.682Z,18.26
2022-08-05T10:01:58.137Z,18.37
2022-08-05T10:04:33.124Z,18.51
2022-08-05T10:07:19.640Z,18.82
2022-08-05T10:10:04.183Z,18.75
2022-08-05T10:12:49.628Z,18.88
2022-08-05T10:15:20.221Z,19.02
2022-08-05T10:18:03.688Z,19.10
2022-08-05T10:20:31.369Z,18.87
2022-08-05T10:23:02.095Z,18.88
2022-08-05T10:25:30.894Z,19.00
2022-08-05T10:28:13.635Z,18.94
2022-08-05T10:32:49.466Z,19.08
2022-08-05T10:33:35.133Z,19.11
2022-08-05T10:36:04.405Z,18.83
2022-08-05T10:38:33.677Z,18.83
2022-08-05T10:41:03.585Z,18.59
2022-08-05T10:43:35.946Z,18.66
2022-08-05T10:46:06.272Z,18.41
2022-08-05T10:48:39.620Z,17.89
2022-08-05T10:51:23.210Z,17.83
2022-08-05T10:53:58.366Z,17.95
2022-08-05T10:56:29.172Z,17.97
2022-08-05T10:59:07.357Z,18.06
2022-08-05T11:02:04.966Z,18.31
2022-08-05T11:04:32.917Z,18.31
2022-08-05T11:07:06.341Z,18.38
2022-08-05T11:09:48.845Z,18.85
2022-08-05T11:12:34.327Z,19.24
2022-08-05T11:15:19.445Z,19.38
2022-08-05T11:17:59.135Z,18.96
2022-08-05T11:20:42.044Z,18.81
2022-08-05T11:23:33.198Z,18.83
2022-08-05T11:26:28.503Z,18.80
2022-08-05T11:29:06.892Z,18.75
2022-08-05T11:31:56.648Z,19.05
2022-08-05T11:34:47.598Z,19.26
2022-08-05T11:38:28.778Z,19.15
2022-08-05T11:41:14.141Z,19.15
2022-08-05T11:44:01.105Z,19.12
2022-08-05T11:46:34.961Z,19.15
2022-08-05T11:49:04.277Z,19.19
2022-08-05T11:51:43.637Z,19.21
2022-08-05T11:54:24.426Z,19.37
2022-08-05T11:57:02.278Z,19.40
2022-08-05T11:59:49.459Z,19.53
2022-08-05T12:02:29.811Z,19.56
2022-08-05T12:05:07.066Z,19.33
2022-08-05T12:08:08.585Z,19.51
2022-08-05T12:10:43.053Z,19.67
2022-08-05T12:13:15.571Z,20.02
2022-08-05T12:15:45.161Z,20.21
2022-08-05T12:18:18.864Z,19.97
2022-08-05T12:20:49.550Z,20.19
2022-08-05T12:24:07.647Z,20.55
2022-08-05T12:31:07.229Z,19.84
2022-08-05T12:33:36.456Z,19.75
2022-08-05T12:36:09.412Z,19.94
2022-08-05T12:38:39.640Z,20.10
2022-08-05T12:41:13.193Z,20.39
2022-08-05T12:43:52.254Z,19.91
2022-08-05T12:46:29.404Z,19.96
2022-08-05T12:49:12.888Z,20.04
2022-08-05T12:52:13.457Z,20.12
2022-08-05T12:54:34.749Z,20.26
2022-08-05T12:57:03.880Z,20.60
2022-08-05T12:59:46.872Z,20.78
2022-08-05T13:02:22.030Z,21.09
2022-08-05T13:04:57.697Z,21.21
2022-08-05T13:10:19.869Z,21.63
2022-08-05T13:12:51.171Z,21.69
2022-08-05T13:15:35.862Z,21.86
2022-08-05T13:18:09.487Z,22.23
2022-08-05T13:20:40.421Z,22.48
2022-08-05T13:23:09.566Z,22.68
2022-08-05T13:25:52.701Z,22.47
2022-08-05T13:28:24.597Z,22.39
2022-08-05T13:30:53.329Z,22.42
2022-08-05T13:34:25.062Z,22.44
2022-08-05T13:36:09.127Z,22.78
2022-08-05T13:38:42.806Z,23.22
2022-08-05T13:41:10.757Z,23.40
2022-08-05T13:43:44.433Z,23.61
2022-08-05T13:46:14.295Z,24.22
2022-08-05T13:48:57.269Z,24.50
2022-08-05T13:51:29.698Z,24.56
2022-08-05T13:54:12.570Z,23.84
2022-08-05T13:56:45.415Z,23.37
2022-08-05T13:59:21.102Z,22.86
2022-08-05T14:01:57.489Z,22.83
2022-08-05T14:04:50.448Z,22.94
2022-08-05T14:07:25.689Z,22.59
2022-08-05T14:10:11.454Z,22.77
2022-08-05T14:12:39.382Z,23.31
2022-08-05T14:16:09.087Z,23.13
2022-08-05T14:17:59.800Z,22.72
2022-08-05T14:20:28.354Z,22.32
2022-08-05T14:22:56.000Z,22.11
2022-08-05T14:25:28.186Z,22.15
2022-08-05T14:27:55.888Z,22.61
2022-08-05T14:30:26.687Z,22.76
2022-08-05T14:32:56.673Z,23.42
2022-08-05T14:35:37.315Z,24.03
2022-08-05T14:38:31.688Z,24.60
2022-08-05T14:41:06.296Z,25.18
2022-08-05T14:43:53.956Z,25.97
2022-08-05T14:46:28.661Z,26.46
2022-08-05T14:48:58.210Z,26.48
2022-08-05T14:51:26.457Z,26.23
2022-08-05T14:54:26.236Z,26.30
2022-08-05T14:56:47.393Z,26.20
2022-08-05T14:59:15.415Z,25.29
2022-08-05T15:01:48.011Z,24.77
2022-08-05T15:04:17.233Z,24.27
2022-08-05T15:06:49.332Z,24.19
2022-08-05T15:09:50.616Z,24.12
2022-08-05T15:12:08.823Z,23.94
2022-08-05T15:14:48.033Z,23.54
2022-08-05T15:17:46.321Z,22.61
2022-08-05T15:20:06.274Z,22.12
2022-08-05T15:22:37.378Z,22.28
2022-08-05T15:25:11.877Z,21.98
2022-08-05T15:27:52.120Z,22.28
2022-08-05T15:30:20.266Z,22.96
2022-08-05T15:32:49.993Z,23.74
2022-08-05T15:35:17.551Z,24.26
2022-08-05T15:38:33.059Z,24.69
2022-08-05T15:41:01.109Z,25.21
2022-08-05T15:43:46.948Z,25.56
2022-08-05T15:46:40.252Z,25.43
2022-08-05T15:49:10.050Z,25.36
2022-08-05T15:52:13.574Z,25.62
2022-08-05T15:54:37.354Z,26.18
2022-08-05T15:57:07.342Z,25.47
2022-08-05T15:59:38.173Z,25.24
2022-08-05T16:02:09.444Z,24.59
2022-08-05T16:04:42.393Z,24.14
2022-08-05T16:07:10.811Z,23.56
2022-08-05T16:09:41.510Z,23.20
2022-08-05T16:12:09.961Z,22.98
2022-08-05T16:14:40.401Z,22.77
2022-08-05T16:17:07.953Z,22.48
2022-08-05T16:20:04.199Z,22.34
2022-08-05T16:22:27.787Z,22.40
2022-08-05T16:25:07.934Z,22.42
2022-08-05T16:27:47.164Z,22.50
2022-08-05T16:30:28.804Z,22.27
2022-08-05T16:32:57.316Z,22.48
2022-08-05T16:35:28.464Z,22.58
2022-08-05T16:38:16.768Z,22.33
2022-08-05T16:40:51.595Z,21.75
2022-08-05T16:43:23.717Z,21.79
2022-08-05T16:46:05.057Z,21.51
2022-08-05T16:48:37.389Z,21.34
2022-08-05T16:51:10.168Z,21.42
2022-08-05T16:54:05.366Z,21.50
2022-08-05T16:56:27.898Z,21.53
2022-08-05T16:58:55.714Z,21.37
2022-08-05T17:01:24.837Z,21.22
2022-08-05T17:03:52.684Z,21.12
2022-08-05T17:06:20.687Z,21.03
2022-08-05T17:08:54.463Z,21.07
2022-08-05T17:11:23.404Z,21.01
2022-08-05T17:14:00.162Z,20.99
2022-08-05T17:16:36.490Z,20.92
2022-08-05T17:19:07.003Z,20.80
2022-08-05T17:21:36.941Z,20.69
2022-08-05T17:24:14.317Z,20.66
2022-08-05T17:26:54.126Z,20.82
2022-08-05T17:29:33.236Z,20.79
2022-08-05T17:32:11.775Z,20.73
2022-08-05T17:34:47.733Z,20.73
2022-08-05T17:37:32.100Z,20.84
2022-08-05T17:40:04.374Z,20.89
2022-08-05T17:42:33.085Z,20.86
2022-08-05T17:45:17.873Z,20.65
2022-08-05T17:47:54.601Z,20.57
2022-08-05T17:50:27.708Z,20.44
2022-08-05T17:52:56.722Z,20.33
2022-08-05T17:55:34.703Z,20.18
2022-08-05T17:58:06.918Z,20.07
2022-08-05T18:00:35.884Z,20.11
2022-08-05T18:03:28.206Z,20.02
2022-08-05T18:06:04.336Z,19.81
2022-08-05T18:08:33.723Z,19.62
2022-08-05T18:11:03.256Z,19.65
2022-08-05T18:13:36.880Z,19.62
2022-08-05T18:16:13.360Z,19.45
2022-08-05T18:18:48.600Z,19.52
2022-08-05T18:21:21.105Z,19.44
2022-08-05T18:23:53.909Z,19.25
2022-08-05T18:26:21.953Z,19.08
2022-08-05T18:28:56.290Z,19.00
2022-08-05T18:31:24.398Z,19.10
2022-08-05T18:33:54.852Z,18.96
2022-08-05T18:36:27.996Z,18.83
2022-08-05T18:38:55.884Z,18.71
2022-08-05T18:41:53.444Z,18.73
2022-08-05T18:44:11.248Z,18.63
2022-08-05T18:46:41.208Z,18.54
2022-08-05T18:49:30.356Z,18.48
2022-08-05T18:52:15.909Z,18.47
2022-08-05T18:54:45.860Z,18.50
2022-08-05T18:57:15.333Z,18.45
2022-08-05T19:00:01.386Z,18.24
2022-08-05T19:02:30.927Z,18.02
2022-08-05T19:06:05.474Z,17.79
2022-08-05T19:07:49.815Z,17.59
2022-08-05T19:10:17.951Z,17.45
2022-08-05T19:12:46.110Z,17.02
2022-08-05T19:15:54.691Z,17.12
2022-08-05T19:18:09.787Z,16.82
2022-08-05T19:20:41.081Z,16.75
2022-08-05T19:24:04.324Z,16.61
2022-08-05T19:26:02.222Z,16.51
2022-08-05T19:28:30.556Z,16.43
2022-08-05T19:30:58.172Z,16.27
2022-08-05T19:33:35.375Z,15.93
2022-08-05T19:36:06.286Z,15.71
2022-08-05T19:38:35.884Z,15.50
2022-08-05T19:41:07.029Z,15.37
2022-08-05T19:44:05.777Z,15.36
2022-08-05T19:46:30.179Z,15.02
2022-08-05T19:49:00.948Z,14.90
2022-08-05T19:52:08.349Z,14.88
2022-08-05T19:54:25.594Z,14.83
2022-08-05T19:56:58.623Z,14.92
2022-08-05T19:59:56.744Z,14.79
2022-08-05T20:02:13.696Z,14.71
2022-08-05T20:04:43.114Z,14.46
2022-08-05T20:07:14.825Z,14.57
2022-08-05T20:09:53.600Z,14.48
2022-08-05T20:12:24.148Z,14.44
2022-08-05T20:14:52.727Z,14.48
2022-08-05T20:17:23.423Z,14.60
2022-08-05T20:19:56.552Z,14.67
2022-08-05T20:22:26.804Z,14.75
2022-08-05T20:24:55.554Z,14.80
2022-08-05T20:27:26.439Z,14.79
2022-08-05T20:29:57.803Z,14.80
2022-08-05T20:32:27.562Z,14.79
2022-08-05T20:34:55.369Z,14.86
2022-08-05T20:38:06.770Z,14.76
2022-08-05T20:40:13.071Z,14.81
2022-08-05T20:42:40.621Z,14.85
2022-08-05T20:45:11.695Z,14.94
2022-08-05T20:47:40.053Z,14.98
2022-08-05T20:50:09.369Z,15.02
2022-08-05T20:52:41.479Z,15.05
2022-08-05T20:55:56.866Z,15.07
2022-08-05T20:57:58.569Z,15.04
2022-08-05T21:00:44.126Z,15.00
2022-08-05T21:03:16.810Z,14.88
2022-08-05T21:05:54.558Z,14.86
2022-08-05T21:08:26.505Z,14.77
2022-08-05T21:11:10.169Z,14.70
2022-08-05T21:13:47.540Z,14.65
2022-08-05T21:16:23.444Z,14.59
2022-08-05T21:19:00.137Z,14.45
2022-08-05T21:21:39.787Z,14.46
2022-08-05T21:24:12.720Z,14.29
2022-08-05T21:26:41.439Z,14.17
2022-08-05T21:29:12.697Z,14.07
2022-08-05T21:31:44.470Z,13.80
2022-08-05T21:34:12.212Z,13.81
2022-08-05T21:36:39.742Z,13.72
2022-08-05T21:39:10.323Z,13.75
2022-08-05T21:41:42.014Z,13.86
2022-08-05T21:44:27.215Z,13.73
2022-08-05T21:46:58.028Z,13.60
2022-08-05T21:49:58.653Z,13.64
2022-08-05T21:52:22.082Z,13.65
2022-08-05T21:54:55.863Z,13.56
2022-08-05T21:57:32.433Z,13.46
2022-08-05T22:00:06.924Z,13.37
2022-08-05T22:02:43.009Z,13.40
2022-08-05T22:05:11.449Z,13.27
2022-08-05T22:07:58.504Z,13.13
2022-08-05T22:10:27.716Z,13.17
2022-08-05T22:12:57.537Z,13.02
2022-08-05T22:16:01.808Z,12.94
2022-08-05T22:18:15.884Z,13.01
2022-08-05T22:20:47.150Z,12.95
2022-08-05T22:24:00.961Z,12.87
2022-08-05T22:26:42.051Z,12.87
2022-08-05T22:29:18.855Z,12.66
2022-08-05T22:31:59.616Z,12.40
2022-08-05T22:34:31.117Z,12.51
2022-08-05T22:36:59.255Z,12.75
2022-08-05T22:39:31.154Z,12.66
2022-08-05T22:42:11.836Z,12.50
2022-08-05T22:44:42.780Z,12.60
2022-08-05T22:47:29.199Z,12.59
2022-08-05T22:50:19.446Z,12.66
2022-08-05T22:52:46.478Z,12.56
2022-08-05T22:55:18.623Z,12.61
2022-08-05T22:57:49.125Z,12.52
2022-08-05T23:00:20.913Z,12.41
2022-08-05T23:02:51.873Z,12.43
2022-08-05T23:05:22.195Z,12.32
2022-08-05T23:07:50.707Z,12.27
2022-08-05T23:10:19.850Z,12.23
2022-08-05T23:12:51.591Z,12.31
2022-08-05T23:15:27.118Z,12.36
2022-08-05T23:18:02.264Z,12.28
2022-08-05T23:20:32.336Z,12.28
2022-08-05T23:23:00.000Z,12.28
2022-08-05T23:25:51.862Z,12.32
2022-08-05T23:28:15.969Z,12.30
2022-08-05T23:30:53.388Z,12.19
2022-08-05T23:33:26.371Z,12.13
2022-08-05T23:36:13.628Z,12.19
2022-08-05T23:38:41.969Z,12.19
2022-08-05T23:41:10.425Z,12.10
2022-08-05T23:44:06.347Z,12.03
2022-08-05T23:46:25.916Z,11.96
2022-08-05T23:49:00.461Z,11.96
2022-08-05T23:51:46.448Z,11.92
2022-08-05T23:54:25.458Z,11.96
2022-08-05T23:56:55.209Z,11.83
2022-08-05T23:59:23.004Z,11.71
